Time;durP1;ratioP1;P1;durP2;ratioP2;P2;SDS_P1;SDS_P2;PMS_P1;PMS_P2;Temp;Humidity;BMP_temperature;BMP_pressure;BME280_temperature;BME280_humidity;BME280_pressure;Samples;Min_cycle;Max_cycle;Signal;HPM_P1;HPM_P2
2023/12/04 00:01:48;;;;;;;30.00;18.33;;;;;;;-1.22;100.00;101074.97;5046299;28;20069;-63
2023/12/04 00:04:13;;;;;;;30.70;19.00;;;;;;;-1.24;100.00;101068.00;5040556;28;20496;-62
2023/12/04 00:06:40;;;;;;;29.03;19.13;;;;;;;-1.25;100.00;101072.19;5058091;28;20055;-65
2023/12/04 00:09:05;;;;;;;30.13;17.83;;;;;;;-1.23;100.00;101070.69;5064849;28;20028;-64
2023/12/04 00:11:31;;;;;;;29.53;19.93;;;;;;;-1.23;100.00;101057.97;5050318;28;20032;-63
2023/12/04 00:13:56;;;;;;;32.00;18.93;;;;;;;-1.17;100.00;101064.31;5031384;28;20019;-64
2023/12/04 00:16:21;;;;;;;28.77;17.70;;;;;;;-1.16;100.00;101055.91;5039670;28;20491;-62
2023/12/04 00:18:46;;;;;;;32.37;18.33;;;;;;;-1.16;100.00;101050.81;5033954;28;20028;-63
2023/12/04 00:21:12;;;;;;;29.37;17.33;;;;;;;-1.18;100.00;101052.34;5054234;28;20452;-63
2023/12/04 00:23:38;;;;;;;28.33;17.43;;;;;;;-1.16;100.00;101059.34;5049042;28;20020;-64
2023/12/04 00:26:03;;;;;;;27.27;17.77;;;;;;;-1.14;100.00;101059.47;5053278;28;20021;-64
2023/12/04 00:28:28;;;;;;;26.90;16.50;;;;;;;-1.15;100.00;101055.16;5044342;28;20028;-64
2023/12/04 00:30:54;;;;;;;25.10;16.90;;;;;;;-1.18;100.00;101045.59;5046334;28;20083;-63
2023/12/04 00:33:19;;;;;;;28.77;18.80;;;;;;;-1.21;100.00;101041.13;5052691;28;20473;-62
2023/12/04 00:35:45;;;;;;;27.13;17.10;;;;;;;-1.20;100.00;101036.94;5052641;28;20027;-64
2023/12/04 00:38:10;;;;;;;30.50;18.13;;;;;;;-1.17;100.00;101033.78;5048782;28;20518;-64
2023/12/04 00:40:35;;;;;;;25.90;16.53;;;;;;;-1.18;100.00;101037.06;5047566;28;20051;-62
2023/12/04 00:43:01;;;;;;;30.33;17.83;;;;;;;-1.17;100.00;101036.34;5048402;28;20056;-63
2023/12/04 00:45:26;;;;;;;29.37;17.80;;;;;;;-1.18;100.00;101032.00;5033978;28;20118;-64
2023/12/04 00:47:51;;;;;;;29.17;18.87;;;;;;;-1.17;100.00;101031.25;5048463;28;20053;-63
2023/12/04 00:50:17;;;;;;;31.07;17.83;;;;;;;-1.18;100.00;101032.88;5048507;28;20020;-64
2023/12/04 00:52:42;;;;;;;25.77;15.87;;;;;;;-1.17;100.00;101023.63;5047366;28;20079;-63
2023/12/04 00:55:08;;;;;;;32.93;19.70;;;;;;;-1.16;100.00;101025.38;5048045;28;20237;-63
2023/12/04 00:57:33;;;;;;;26.87;16.60;;;;;;;-1.14;100.00;101018.78;5047751;28;20027;-63
2023/12/04 00:59:58;;;;;;;25.27;16.17;;;;;;;-1.18;100.00;101017.63;5028698;28;20417;-63
2023/12/04 01:02:23;;;;;;;25.20;16.03;;;;;;;-1.18;100.00;101012.53;5028479;28;20048;-63
2023/12/04 01:04:49;;;;;;;26.53;16.83;;;;;;;-1.15;100.00;101006.84;5061023;28;20033;-64
2023/12/04 01:07:15;;;;;;;27.50;17.23;;;;;;;-1.16;100.00;101007.56;5047731;28;20033;-64
2023/12/04 01:09:40;;;;;;;27.40;16.27;;;;;;;-1.15;100.00;101014.47;5047689;28;20493;-63
2023/12/04 01:12:05;;;;;;;29.43;17.47;;;;;;;-1.15;100.00;101001.75;5047856;28;20031;-64
2023/12/04 01:14:31;;;;;;;28.00;17.77;;;;;;;-1.17;100.00;101003.25;5053324;28;20073;-64
2023/12/04 01:16:56;;;;;;;25.60;15.93;;;;;;;-1.15;100.00;101002.59;5067204;28;20120;-63
2023/12/04 01:19:22;;;;;;;26.40;16.97;;;;;;;-1.14;100.00;100999.31;5060754;28;20541;-64
2023/12/04 01:21:47;;;;;;;26.63;16.10;;;;;;;-1.15;100.00;100991.56;5047432;28;20021;-64
2023/12/04 01:24:15;;;;;;;24.37;15.73;;;;;;;-1.10;100.00;100996.25;5046542;28;20496;-64
2023/12/04 01:26:40;;;;;;;25.27;16.50;;;;;;;-1.12;100.00;100987.63;5046684;28;20099;-64
2023/12/04 01:29:06;;;;;;;26.17;16.30;;;;;;;-1.13;100.00;100987.47;5027800;28;20074;-64
2023/12/04 01:31:31;;;;;;;26.07;16.23;;;;;;;-1.14;100.00;100988.25;5040854;28;20036;-64
2023/12/04 01:33:56;;;;;;;28.43;16.77;;;;;;;-1.11;100.00;100983.41;5053460;28;20016;-63
2023/12/04 01:36:21;;;;;;;24.53;15.27;;;;;;;-1.11;100.00;100978.31;5029694;28;20017;-63
2023/12/04 01:38:47;;;;;;;24.30;15.47;;;;;;;-1.10;100.00;100975.03;5065976;28;20032;-64
2023/12/04 01:41:12;;;;;;;26.50;15.47;;;;;;;-1.11;100.00;100975.78;5040645;28;20026;-64
2023/12/04 01:43:37;;;;;;;24.17;15.70;;;;;;;-1.11;100.00;100965.59;5066574;28;20297;-64
2023/12/04 01:46:03;;;;;;;24.63;15.83;;;;;;;-1.08;100.00;100970.94;5040317;28;20528;-64
2023/12/04 01:48:29;;;;;;;24.73;15.63;;;;;;;-1.09;100.00;100969.16;5066226;28;20113;-64
2023/12/04 01:50:57;;;;;;;26.57;16.17;;;;;;;-1.09;100.00;100971.69;5051332;28;20017;-64
2023/12/04 01:53:22;;;;;;;23.63;15.70;;;;;;;-1.10;100.00;100972.47;5036198;28;20021;-64
2023/12/04 01:55:49;;;;;;;22.03;14.40;;;;;;;-1.08;100.00;100963.31;5047017;28;20048;-62
2023/12/04 01:58:14;;;;;;;23.67;14.10;;;;;;;-1.08;100.00;100968.41;5033623;28;20021;-63
2023/12/04 02:00:40;;;;;;;22.90;14.67;;;;;;;-1.06;100.00;100961.75;5046647;28;20017;-63
2023/12/04 02:03:06;;;;;;;25.43;15.20;;;;;;;-1.06;100.00;100956.69;5046886;28;20028;-63
2023/12/04 02:05:31;;;;;;;21.57;14.07;;;;;;;-1.05;100.00;100953.38;5036211;28;20041;-64
2023/12/04 02:07:57;;;;;;;23.77;14.33;;;;;;;-1.05;100.00;100948.28;5058074;28;20385;-64
2023/12/04 02:10:22;;;;;;;22.07;13.47;;;;;;;-1.07;100.00;100949.81;5058667;28;20024;-64
2023/12/04 02:12:49;;;;;;;20.67;14.47;;;;;;;-1.10;100.00;100939.41;5062616;28;20035;-63
2023/12/04 02:15:14;;;;;;;24.47;15.07;;;;;;;-1.07;100.00;100942.19;5064768;28;20041;-62
2023/12/04 02:17:41;;;;;;;22.90;14.70;;;;;;;-1.06;100.00;100933.78;5063522;28;20020;-62
2023/12/04 02:20:07;;;;;;;21.83;13.47;;;;;;;-1.04;100.00;100939.03;5041019;28;20104;-64
2023/12/04 02:22:33;;;;;;;22.23;13.60;;;;;;;-1.01;100.00;100929.94;5048632;28;20063;-64
2023/12/04 02:25:00;;;;;;;24.03;14.07;;;;;;;-1.04;100.00;100932.25;5044322;28;20530;-62
2023/12/04 02:27:28;;;;;;;23.07;13.83;;;;;;;-1.04;100.00;100919.53;5037536;28;20029;-61
2023/12/04 02:29:59;;;;;;;22.00;14.47;;;;;;;-1.06;100.00;100928.69;5046751;28;20025;-63
2023/12/04 02:32:29;;;;;;;22.85;14.30;;;;;;;-1.02;100.00;100919.66;5046970;28;20033;-63
2023/12/04 02:34:55;;;;;;;20.27;13.03;;;;;;;-1.05;100.00;100917.75;5046493;28;20036;-64
2023/12/04 02:37:22;;;;;;;23.03;14.17;;;;;;;-1.01;100.00;100919.78;5038132;28;20037;-63
2023/12/04 02:39:49;;;;;;;22.23;14.27;;;;;;;-1.01;100.00;100913.81;5052870;28;20472;-64
2023/12/04 02:42:16;;;;;;;21.37;14.07;;;;;;;-1.00;100.00;100913.94;5040122;28;20021;-63
2023/12/04 02:44:42;;;;;;;22.07;13.70;;;;;;;-1.00;100.00;100906.31;5047946;28;20044;-62
2023/12/04 02:47:07;;;;;;;19.90;12.50;;;;;;;-1.00;100.00;100903.75;5051412;28;20018;-64
2023/12/04 02:49:32;;;;;;;22.20;13.17;;;;;;;-0.97;100.00;100901.44;5046259;28;20025;-62
2023/12/04 02:51:58;;;;;;;20.10;13.90;;;;;;;-1.01;100.00;100899.41;5050249;28;20017;-64
2023/12/04 02:54:23;;;;;;;22.07;13.30;;;;;;;-0.95;100.00;100898.16;5050414;28;20074;-63
2023/12/04 02:56:48;;;;;;;19.23;13.33;;;;;;;-0.98;100.00;100894.59;5051425;28;20397;-63
2023/12/04 02:59:13;;;;;;;20.13;12.50;;;;;;;-1.00;100.00;100885.94;5049871;28;20023;-63
2023/12/04 03:01:39;;;;;;;19.30;13.23;;;;;;;-1.04;100.00;100889.00;5045926;28;20458;-64
2023/12/04 03:04:04;;;;;;;18.67;12.70;;;;;;;-1.02;100.00;100882.38;5056544;28;20056;-64
2023/12/04 03:06:29;;;;;;;20.37;14.20;;;;;;;-1.02;100.00;100869.66;5037574;28;20033;-64
2023/12/04 03:08:54;;;;;;;19.37;13.00;;;;;;;-0.97;100.00;100875.09;5047811;28;20451;-60
2023/12/04 03:11:20;;;;;;;19.63;12.53;;;;;;;-0.95;100.00;100867.63;5048853;28;20435;-64
2023/12/04 03:13:45;;;;;;;18.87;12.60;;;;;;;-0.96;100.00;100871.81;5050725;28;20029;-64
2023/12/04 03:16:18;;;;;;;20.03;12.80;;;;;;;-0.91;100.00;100867.06;5050231;28;20483;-64
2023/12/04 03:18:44;;;;;;;19.07;12.40;;;;;;;-0.91;100.00;100873.06;5048417;28;20104;-64
2023/12/04 03:21:09;;;;;;;17.50;12.37;;;;;;;-0.95;100.00;100860.84;5049619;28;20024;-64
2023/12/04 03:23:34;;;;;;;18.30;10.47;;;;;;;-0.97;100.00;100862.38;5050434;28;20029;-64
2023/12/04 03:26:00;;;;;;;20.77;11.93;;;;;;;-0.99;100.00;100847.00;5049403;28;20481;-64
2023/12/04 03:28:25;;;;;;;18.17;12.63;;;;;;;-1.02;100.00;100846.75;5049963;28;20604;-64
2023/12/04 03:30:50;;;;;;;19.13;12.37;;;;;;;-1.00;100.00;100840.16;5045644;28;20039;-64
2023/12/04 03:33:15;;;;;;;17.80;10.93;;;;;;;-1.01;100.00;100833.25;5050980;28;20025;-63
2023/12/04 03:35:41;;;;;;;18.13;11.60;;;;;;;-1.02;100.00;100830.59;5065689;28;20384;-63
2023/12/04 03:38:06;;;;;;;16.27;10.40;;;;;;;-1.01;100.00;100822.22;5067951;28;20040;-63
2023/12/04 03:40:31;;;;;;;20.67;13.53;;;;;;;-1.04;100.00;100825.41;5042343;28;20033;-61
2023/12/04 03:42:57;;;;;;;16.37;10.57;;;;;;;-1.04;100.00;100817.75;5047821;28;20033;-63
2023/12/04 03:45:22;;;;;;;17.37;11.63;;;;;;;-1.01;100.00;100818.00;5040713;28;20044;-64
2023/12/04 03:47:47;;;;;;;17.97;11.50;;;;;;;-1.04;100.00;100812.69;5047070;28;20056;-63
2023/12/04 03:50:13;;;;;;;16.77;11.03;;;;;;;-1.05;100.00;100805.81;5052468;28;20028;-64
2023/12/04 03:52:38;;;;;;;17.30;10.87;;;;;;;-1.05;100.00;100803.28;5059754;28;20447;-62
2023/12/04 03:55:04;;;;;;;14.90;11.17;;;;;;;-1.03;100.00;100798.31;5048497;28;20029;-64
2023/12/04 03:57:29;;;;;;;15.33;9.80;;;;;;;-1.03;100.00;100804.28;5049130;28;20032;-64
2023/12/04 03:59:54;;;;;;;18.00;11.03;;;;;;;-1.02;100.00;100790.78;5049083;28;20059;-64
2023/12/04 04:02:20;;;;;;;15.93;11.33;;;;;;;-1.01;100.00;100797.66;5048243;28;20044;-64
2023/12/04 04:04:45;;;;;;;15.63;11.13;;;;;;;-1.02;100.00;100789.91;5047801;28;20024;-64
2023/12/04 04:07:11;;;;;;;16.23;11.63;;;;;;;-1.03;100.00;100783.94;5060544;28;20037;-63
2023/12/04 04:09:36;;;;;;;16.47;10.87;;;;;;;-1.05;100.00;100789.66;5053706;28;20026;-63
2023/12/04 04:12:02;;;;;;;17.00;11.17;;;;;;;-1.05;100.00;100782.94;5042423;28;20366;-64
2023/12/04 04:14:27;;;;;;;17.43;10.33;;;;;;;-1.07;100.00;100781.91;5055785;28;20203;-64
2023/12/04 04:16:52;;;;;;;15.00;10.70;;;;;;;-1.09;100.00;100778.34;5029895;28;20083;-64
2023/12/04 04:19:18;;;;;;;16.03;11.03;;;;;;;-1.08;100.00;100772.53;5054290;28;20020;-64
2023/12/04 04:21:43;;;;;;;17.17;11.40;;;;;;;-1.09;100.00;100769.09;5046758;28;20024;-64
2023/12/04 04:24:08;;;;;;;15.47;10.80;;;;;;;-1.09;100.00;100770.72;5048473;28;20043;-63
2023/12/04 04:26:33;;;;;;;14.57;10.63;;;;;;;-1.09;100.00;100764.00;5049223;28;20024;-64
2023/12/04 04:28:59;;;;;;;16.53;11.30;;;;;;;-1.10;100.00;100767.28;5049484;28;20025;-63
2023/12/04 04:31:24;;;;;;;14.57;10.90;;;;;;;-1.09;100.00;100763.09;5049238;28;20025;-65
2023/12/04 04:33:50;;;;;;;16.90;11.23;;;;;;;-1.11;100.00;100762.09;5034725;28;20036;-63
2023/12/04 04:36:15;;;;;;;17.03;10.03;;;;;;;-1.15;100.00;100747.38;5049366;28;20033;-64
2023/12/04 04:38:40;;;;;;;15.63;11.33;;;;;;;-1.14;100.00;100749.13;5046626;28;20557;-63
2023/12/04 04:41:06;;;;;;;15.13;11.20;;;;;;;-1.17;100.00;100749.75;5068074;28;20028;-64
2023/12/04 04:43:31;;;;;;;14.77;10.53;;;;;;;-1.16;100.00;100740.50;5035281;28;20032;-64
2023/12/04 04:45:57;;;;;;;13.33;10.07;;;;;;;-1.19;100.00;100751.31;5028773;28;20060;-63
2023/12/04 04:48:22;;;;;;;18.23;11.17;;;;;;;-1.19;100.00;100747.88;5057962;28;20032;-64
2023/12/04 04:50:47;;;;;;;14.67;10.63;;;;;;;-1.18;100.00;100744.56;5048148;28;20086;-64
2023/12/04 04:53:12;;;;;;;13.40;9.87;;;;;;;-1.18;100.00;100737.84;5047290;28;20104;-64
2023/12/04 04:55:38;;;;;;;16.00;11.03;;;;;;;-1.16;100.00;100741.38;5058451;28;20028;-64
2023/12/04 04:58:03;;;;;;;13.53;9.53;;;;;;;-1.16;100.00;100746.47;5033372;28;20390;-64
2023/12/04 05:00:28;;;;;;;15.13;10.33;;;;;;;-1.16;100.00;100745.56;5049922;28;20040;-64
2023/12/04 05:02:53;;;;;;;13.53;10.50;;;;;;;-1.17;100.00;100743.81;5036308;28;20552;-64
2023/12/04 05:05:19;;;;;;;13.30;10.00;;;;;;;-1.19;100.00;100740.25;5058333;28;20040;-64
2023/12/04 05:07:44;;;;;;;13.40;9.10;;;;;;;-1.18;100.00;100740.38;5058298;28;20030;-63
2023/12/04 05:10:09;;;;;;;13.93;10.60;;;;;;;-1.16;100.00;100746.47;5039278;28;20503;-64
2023/12/04 05:12:34;;;;;;;14.20;9.93;;;;;;;-1.18;100.00;100742.03;5063245;28;20035;-62
2023/12/04 05:15:00;;;;;;;13.27;9.93;;;;;;;-1.15;100.00;100740.59;5045968;28;20048;-64
2023/12/04 05:17:25;;;;;;;14.37;9.63;;;;;;;-1.14;100.00;100733.88;5049317;28;20504;-63
2023/12/04 05:19:50;;;;;;;13.10;9.77;;;;;;;-1.15;100.00;100730.44;5045230;28;20033;-62
2023/12/04 05:22:16;;;;;;;14.43;10.20;;;;;;;-1.16;100.00;100720.13;5042878;28;20016;-64
2023/12/04 05:24:41;;;;;;;13.67;10.03;;;;;;;-1.14;100.00;100719.50;5047379;28;20033;-60
2023/12/04 05:27:06;;;;;;;11.63;9.50;;;;;;;-1.06;100.00;100724.31;5047244;28;20413;-60
2023/12/04 05:29:31;;;;;;;13.67;9.90;;;;;;;-1.11;100.00;100703.56;5047718;28;20025;-59
2023/12/04 05:31:57;;;;;;;14.07;10.20;;;;;;;-1.11;100.00;100709.56;5048703;28;20107;-61
2023/12/04 05:34:23;;;;;;;12.83;10.07;;;;;;;-1.12;100.00;100706.91;5045836;28;20389;-59
2023/12/04 05:36:48;;;;;;;12.57;9.47;;;;;;;-1.12;100.00;100706.91;5043061;28;20472;-60
2023/12/04 05:39:13;;;;;;;14.20;10.07;;;;;;;-1.12;100.00;100701.81;5045176;28;20051;-61
2023/12/04 05:41:38;;;;;;;13.70;9.03;;;;;;;-1.12;100.00;100690.00;5050466;28;20066;-59
2023/12/04 05:44:04;;;;;;;13.13;9.10;;;;;;;-1.08;100.00;100696.22;5049736;28;20037;-59
2023/12/04 05:46:29;;;;;;;11.87;8.43;;;;;;;-1.14;100.00;100677.91;5042439;28;20025;-60
2023/12/04 05:48:54;;;;;;;12.37;9.03;;;;;;;-1.12;100.00;100682.38;5046277;28;20037;-59
2023/12/04 05:51:20;;;;;;;13.37;9.27;;;;;;;-1.06;100.00;100702.28;5046221;28;20099;-64
2023/12/04 05:53:45;;;;;;;13.80;9.60;;;;;;;-1.02;100.00;100698.31;5047436;28;20369;-59
2023/12/04 05:56:10;;;;;;;13.00;8.57;;;;;;;-1.05;100.00;100709.16;5041673;28;20029;-59
2023/12/04 05:58:36;;;;;;;11.43;8.83;;;;;;;-1.03;100.00;100702.53;5040957;28;20086;-60
2023/12/04 06:01:01;;;;;;;11.20;8.73;;;;;;;-1.07;100.00;100694.53;5052413;28;20074;-59
2023/12/04 06:03:26;;;;;;;11.60;9.27;;;;;;;-1.06;100.00;100691.22;5042880;28;20039;-60
2023/12/04 06:05:52;;;;;;;12.50;8.77;;;;;;;-1.08;100.00;100688.56;5057600;28;20125;-60
2023/12/04 06:08:17;;;;;;;12.30;8.43;;;;;;;-1.04;100.00;100688.00;5046801;28;20064;-60
2023/12/04 06:10:42;;;;;;;10.87;8.60;;;;;;;-1.08;100.00;100670.75;5041591;28;20034;-59
2023/12/04 06:13:08;;;;;;;12.87;8.47;;;;;;;-1.08;100.00;100673.31;5051537;28;20024;-59
2023/12/04 06:15:33;;;;;;;12.40;8.57;;;;;;;-1.09;100.00;100659.69;5045610;28;20039;-60
2023/12/04 06:17:58;;;;;;;10.83;8.10;;;;;;;-1.06;100.00;100665.78;5041871;28;20494;-59
2023/12/04 06:20:24;;;;;;;11.23;8.10;;;;;;;-1.06;100.00;100669.19;5056007;28;20024;-59
2023/12/04 06:22:49;;;;;;;10.57;7.70;;;;;;;-1.05;100.00;100652.28;5046229;28;20484;-60
2023/12/04 06:25:15;;;;;;;9.57;7.70;;;;;;;-1.06;100.00;100646.31;5060094;28;20073;-59
2023/12/04 06:27:41;;;;;;;9.97;8.00;;;;;;;-1.06;100.00;100636.13;5040782;28;20053;-60
2023/12/04 06:30:06;;;;;;;11.00;8.37;;;;;;;-1.07;100.00;100639.44;5058721;28;20070;-59
2023/12/04 06:32:32;;;;;;;10.10;8.07;;;;;;;-1.06;100.00;100636.13;5040036;28;20029;-59
2023/12/04 06:34:58;;;;;;;8.83;7.00;;;;;;;-1.10;100.00;100636.69;5049001;28;20020;-59
2023/12/04 06:37:24;;;;;;;8.17;7.03;;;;;;;-1.06;100.00;100631.03;5046089;28;20424;-60
2023/12/04 06:39:52;;;;;;;8.97;6.80;;;;;;;-1.06;100.00;100620.00;5035061;28;20022;-60
2023/12/04 06:42:18;;;;;;;9.40;6.90;;;;;;;-1.05;100.00;100609.94;5052213;28;20168;-60
2023/12/04 06:44:43;;;;;;;9.27;6.93;;;;;;;-1.07;100.00;100608.03;5034670;28;20060;-61
2023/12/04 06:47:11;;;;;;;7.77;6.47;;;;;;;-1.05;100.00;100599.75;5038439;28;20476;-60
2023/12/04 06:49:37;;;;;;;10.53;7.37;;;;;;;-1.05;100.00;100602.31;5040188;28;20028;-60
2023/12/04 06:52:03;;;;;;;10.40;7.03;;;;;;;-1.04;100.00;100588.78;5052245;28;20043;-60
2023/12/04 06:54:28;;;;;;;10.57;7.23;;;;;;;-1.05;100.00;100597.22;5046319;28;20025;-59
2023/12/04 06:56:54;;;;;;;8.20;6.53;;;;;;;-1.05;100.00;100594.66;5053609;28;20029;-60
2023/12/04 06:59:19;;;;;;;9.13;6.10;;;;;;;-1.07;100.00;100587.69;5049226;28;20051;-59
2023/12/04 07:01:44;;;;;;;9.03;7.30;;;;;;;-1.05;100.00;100598.88;5035728;28;20108;-59
2023/12/04 07:04:10;;;;;;;8.00;6.20;;;;;;;-1.05;100.00;100603.94;5039257;28;20841;-60
2023/12/04 07:06:36;;;;;;;8.27;7.07;;;;;;;-1.05;100.00;100612.47;5056206;28;20033;-59
2023/12/04 07:09:02;;;;;;;8.10;6.43;;;;;;;-1.06;100.00;100610.69;5043270;28;20029;-59
2023/12/04 07:11:27;;;;;;;7.23;6.00;;;;;;;-1.05;100.00;100611.59;5043069;28;20465;-60
2023/12/04 07:13:52;;;;;;;8.33;6.23;;;;;;;-1.07;100.00;100608.03;5042074;28;20068;-59
2023/12/04 07:16:18;;;;;;;8.40;6.57;;;;;;;-1.07;100.00;100598.75;5039088;28;20461;-60
2023/12/04 07:18:43;;;;;;;9.23;6.63;;;;;;;-1.05;100.00;100598.88;5047327;28;20036;-61
2023/12/04 07:21:09;;;;;;;7.77;6.50;;;;;;;-1.06;100.00;100597.97;5055117;28;20028;-60
2023/12/04 07:23:35;;;;;;;7.50;5.80;;;;;;;-1.03;100.00;100602.41;5048822;28;20461;-60
2023/12/04 07:26:00;;;;;;;9.47;6.23;;;;;;;-1.00;100.00;100602.63;5045563;28;20028;-60
2023/12/04 07:28:25;;;;;;;7.10;6.10;;;;;;;-1.07;100.00;100603.84;5048077;28;20112;-59
2023/12/04 07:30:51;;;;;;;7.90;6.27;;;;;;;-1.05;100.00;100603.94;5053326;28;20036;-61
2023/12/04 07:33:16;;;;;;;8.53;6.30;;;;;;;-1.07;100.00;100602.94;5054267;28;20385;-59
2023/12/04 07:35:41;;;;;;;7.90;6.37;;;;;;;-1.06;100.00;100600.50;5054442;28;20059;-61
2023/12/04 07:38:07;;;;;;;7.80;6.27;;;;;;;-1.08;100.00;100594.44;5043629;28;20028;-59
2023/12/04 07:40:32;;;;;;;8.53;6.37;;;;;;;-1.06;100.00;100589.47;5038452;28;20025;-60
2023/12/04 07:42:57;;;;;;;7.60;6.07;;;;;;;-1.06;100.00;100605.59;5047707;28;20534;-60
2023/12/04 07:45:23;;;;;;;7.77;5.87;;;;;;;-1.03;100.00;100616.03;5047255;28;20049;-59
2023/12/04 07:47:50;;;;;;;7.77;5.83;;;;;;;-1.07;100.00;100608.94;5044702;28;20032;-59
2023/12/04 07:50:15;;;;;;;7.53;5.80;;;;;;;-1.02;100.00;100607.63;5038030;28;20817;-59
2023/12/04 07:52:41;;;;;;;7.50;6.57;;;;;;;-1.03;100.00;100608.41;5048930;28;20024;-60
2023/12/04 07:55:06;;;;;;;6.63;5.70;;;;;;;-1.01;100.00;100601.75;5045567;28;20032;-60
2023/12/04 07:57:32;;;;;;;7.70;5.90;;;;;;;-0.97;100.00;100613.03;5045775;28;20033;-59
2023/12/04 07:59:57;;;;;;;7.97;5.87;;;;;;;-0.97;100.00;100602.84;5044785;28;20108;-60
2023/12/04 08:02:22;;;;;;;7.50;5.90;;;;;;;-0.95;100.00;100592.81;5043725;28;20101;-61
2023/12/04 08:04:47;;;;;;;6.60;5.00;;;;;;;-0.91;100.00;100587.16;5049462;28;20025;-60
2023/12/04 08:07:13;;;;;;;6.17;5.27;;;;;;;-0.94;100.00;100581.84;5046733;28;20488;-60
2023/12/04 08:09:38;;;;;;;8.03;6.00;;;;;;;-0.99;100.00;100579.84;5050158;28;20024;-60
2023/12/04 08:12:04;;;;;;;7.10;5.50;;;;;;;-0.99;100.00;100581.53;5048707;28;20025;-59
2023/12/04 08:14:29;;;;;;;7.20;5.67;;;;;;;-0.97;100.00;100575.78;5059977;28;20082;-59
2023/12/04 08:16:55;;;;;;;6.40;5.70;;;;;;;-0.94;100.00;100572.56;5061655;28;20340;-59
2023/12/04 08:19:20;;;;;;;6.17;5.43;;;;;;;-0.87;100.00;100561.19;5045606;28;20032;-60
2023/12/04 08:21:46;;;;;;;6.97;5.63;;;;;;;-0.93;100.00;100578.53;5041152;28;20017;-60
2023/12/04 08:24:11;;;;;;;6.63;5.47;;;;;;;-0.89;100.00;100572.91;5046750;28;20051;-60
2023/12/04 08:26:36;;;;;;;6.53;5.67;;;;;;;-0.94;100.00;100570.03;5045606;28;20567;-61
2023/12/04 08:29:02;;;;;;;6.37;5.07;;;;;;;-0.94;100.00;100558.97;5046545;28;20104;-60
2023/12/04 08:31:27;;;;;;;6.97;5.33;;;;;;;-0.91;100.00;100555.00;5050861;28;20075;-60
2023/12/04 08:33:53;;;;;;;7.27;6.00;;;;;;;-0.92;100.00;100557.41;5041758;28;20105;-60
2023/12/04 08:36:18;;;;;;;7.43;5.27;;;;;;;-0.87;100.00;100558.66;5050428;28;20477;-61
2023/12/04 08:38:43;;;;;;;6.47;5.70;;;;;;;-0.85;100.00;100550.34;5051440;28;20017;-60
2023/12/04 08:41:09;;;;;;;7.03;5.47;;;;;;;-0.85;100.00;100541.84;5052102;28;20096;-60
2023/12/04 08:43:34;;;;;;;6.40;5.47;;;;;;;-0.87;100.00;100540.84;5049839;28;20025;-60
2023/12/04 08:46:00;;;;;;;6.27;5.27;;;;;;;-0.84;100.00;100538.50;5037591;28;20068;-60
2023/12/04 08:48:25;;;;;;;7.20;5.80;;;;;;;-0.87;100.00;100528.13;5037504;28;20468;-60
2023/12/04 08:50:50;;;;;;;7.23;5.37;;;;;;;-0.86;100.00;100527.31;5053132;28;20025;-60
2023/12/04 08:53:16;;;;;;;9.10;5.53;;;;;;;-0.86;100.00;100522.22;5053316;28;20103;-60
2023/12/04 08:55:42;;;;;;;6.87;5.60;;;;;;;-0.85;100.00;100522.34;5054917;28;20045;-59
2023/12/04 08:58:07;;;;;;;6.33;4.90;;;;;;;-0.86;100.00;100512.94;5051205;28;20518;-58
2023/12/04 09:00:33;;;;;;;7.07;5.23;;;;;;;-0.78;100.00;100505.88;5043969;28;20031;-59
2023/12/04 09:02:58;;;;;;;6.73;5.33;;;;;;;-0.76;100.00;100503.44;5050446;28;20017;-59
2023/12/04 09:05:23;;;;;;;7.33;5.57;;;;;;;-0.74;100.00;100501.91;5049679;28;20465;-59
2023/12/04 09:07:49;;;;;;;7.20;5.47;;;;;;;-0.75;100.00;100511.19;5045362;28;20063;-60
2023/12/04 09:10:14;;;;;;;6.53;5.23;;;;;;;-0.76;100.00;100514.53;5060265;28;20028;-60
2023/12/04 09:12:40;;;;;;;7.63;5.83;;;;;;;-0.72;100.00;100510.53;5040319;28;20021;-61
2023/12/04 09:15:06;;;;;;;8.17;5.97;;;;;;;-0.70;100.00;100513.19;5054043;28;20362;-60
2023/12/04 09:17:31;;;;;;;5.50;4.87;;;;;;;-0.70;100.00;100513.19;5046910;28;20047;-60
2023/12/04 09:19:57;;;;;;;5.73;4.93;;;;;;;-0.66;100.00;100510.06;5059775;28;20346;-60
2023/12/04 09:22:22;;;;;;;6.50;5.20;;;;;;;-0.66;100.00;100507.53;5047207;28;20106;-60
2023/12/04 09:24:47;;;;;;;6.00;4.93;;;;;;;-0.65;100.00;100509.31;5048134;28;20032;-60
2023/12/04 09:27:13;;;;;;;7.70;5.90;;;;;;;-0.67;100.00;100500.69;5032256;28;20052;-59
2023/12/04 09:29:38;;;;;;;7.37;5.50;;;;;;;-0.63;100.00;100492.50;5028141;28;20040;-60
2023/12/04 09:32:04;;;;;;;9.20;6.00;;;;;;;-0.62;100.00;100496.81;5043660;28;20385;-60
2023/12/04 09:34:29;;;;;;;6.57;5.20;;;;;;;-0.60;100.00;100495.25;5046620;28;20060;-60
2023/12/04 09:36:54;;;;;;;7.10;5.63;;;;;;;-0.59;100.00;100499.56;5046440;28;20032;-60
2023/12/04 09:39:19;;;;;;;7.50;5.57;;;;;;;-0.61;100.00;100503.66;5046667;28;20028;-60
2023/12/04 09:41:46;;;;;;;7.90;5.50;;;;;;;-0.64;100.00;100505.97;5046553;28;20488;-60
2023/12/04 09:44:12;;;;;;;7.43;5.90;;;;;;;-0.59;100.00;100496.16;5055271;28;20044;-60
2023/12/04 09:46:38;;;;;;;7.60;6.17;;;;;;;-0.56;100.00;100497.25;5067256;28;20037;-60
2023/12/04 09:49:04;;;;;;;8.10;6.43;;;;;;;-0.53;100.00;100499.13;5068274;28;20376;-60
2023/12/04 09:51:29;;;;;;;6.37;5.77;;;;;;;-0.53;100.00;100492.38;5053056;28;20167;-60
2023/12/04 09:53:59;;;;;;;7.50;5.30;;;;;;;-0.51;100.00;100490.81;5051512;28;20108;-59
2023/12/04 09:56:25;;;;;;;7.60;5.93;;;;;;;-0.48;100.00;100495.25;5037322;28;20167;-60
2023/12/04 09:58:59;;;;;;;7.37;6.00;;;;;;;-0.50;100.00;100490.03;5049973;28;20079;-60
2023/12/04 10:01:25;;;;;;;8.10;5.90;;;;;;;-0.45;100.00;100499.69;5047371;28;20074;-60
2023/12/04 10:03:50;;;;;;;8.40;6.13;;;;;;;-0.46;100.00;100487.69;5043862;28;20029;-60
2023/12/04 10:06:19;;;;;;;7.37;5.43;;;;;;;-0.45;100.00;100489.50;5056036;28;20040;-60
2023/12/04 10:08:47;;;;;;;9.53;6.43;;;;;;;-0.42;100.00;100487.16;5047633;28;20484;-60
2023/12/04 10:11:13;;;;;;;6.77;5.70;;;;;;;-0.38;100.00;100476.41;5052480;28;20035;-59
2023/12/04 10:13:40;;;;;;;7.60;6.17;;;;;;;-0.40;100.00;100476.31;5038659;28;20021;-61
2023/12/04 10:16:06;;;;;;;7.70;6.23;;;;;;;-0.42;100.00;100472.78;5046740;28;20024;-60
2023/12/04 10:18:31;;;;;;;8.33;6.17;;;;;;;-0.40;100.00;100478.88;5039559;28;20029;-60
2023/12/04 10:20:58;;;;;;;7.43;6.10;;;;;;;-0.38;100.00;100471.31;5041507;28;20024;-61
2023/12/04 10:23:43;;;;;;;8.03;6.10;;;;;;;-0.38;100.00;100468.78;5047046;28;20024;-60
2023/12/04 10:26:08;;;;;;;7.93;6.87;;;;;;;-0.38;100.00;100466.22;5045578;28;20040;-60
2023/12/04 10:28:35;;;;;;;8.13;6.43;;;;;;;-0.39;100.00;100454.25;5046781;28;20052;-60
2023/12/04 10:31:01;;;;;;;8.90;6.77;;;;;;;-0.38;100.00;100448.41;5051067;28;20051;-60
2023/12/04 10:33:28;;;;;;;10.83;7.80;;;;;;;-0.34;100.00;100442.72;5033492;28;20477;-60
2023/12/04 10:35:55;;;;;;;8.70;7.17;;;;;;;-0.32;100.00;100428.44;5053855;28;20048;-60
2023/12/04 10:38:20;;;;;;;9.73;7.10;;;;;;;-0.30;100.00;100432.00;5060348;28;20374;-60
2023/12/04 10:40:46;;;;;;;11.10;8.83;;;;;;;-0.28;100.00;100420.25;5054904;28;20023;-60
2023/12/04 10:43:14;;;;;;;12.60;7.97;;;;;;;-0.26;100.00;100416.16;5058865;28;20028;-60
2023/12/04 10:45:40;;;;;;;11.27;8.70;;;;;;;-0.21;100.00;100415.56;5055492;28;20052;-60
2023/12/04 10:48:06;;;;;;;9.10;7.73;;;;;;;-0.20;100.00;100409.72;5051629;28;20087;-60
2023/12/04 10:50:34;;;;;;;10.93;7.87;;;;;;;-0.16;100.00;100404.91;5058919;28;20068;-60
2023/12/04 10:53:02;;;;;;;9.60;7.83;;;;;;;-0.14;100.00;100411.00;5043457;28;20104;-59
2023/12/04 10:55:27;;;;;;;11.93;8.27;;;;;;;-0.10;100.00;100396.81;5046601;28;20099;-59
2023/12/04 10:57:54;;;;;;;8.23;7.20;;;;;;;-0.11;100.00;100395.06;5047197;28;20120;-60
2023/12/04 11:00:21;;;;;;;9.50;7.77;;;;;;;-0.09;100.00;100398.56;5053013;28;20029;-59
2023/12/04 11:02:48;;;;;;;10.10;7.70;;;;;;;-0.05;100.00;100392.03;5051428;28;20017;-60